Time;durP1;ratioP1;P1;durP2;ratioP2;P2;SDS_P1;SDS_P2;PMS_P1;PMS_P2;Temp;Humidity;BMP_temperature;BMP_pressure;BME280_temperature;BME280_humidity;BME280_pressure;Samples;Min_cycle;Max_cycle;Signal;HPM_P1;HPM_P2
2022/11/20 00:01:16;;;;;;;4.50;4.10;;;10.20;80.50;;;;;;5049825;28;20436;-50
2022/11/20 00:04:11;;;;;;;4.47;3.63;;;10.20;80.50;;;;;;5067754;28;20497;-49
2022/11/20 00:06:40;;;;;;;4.30;3.90;;;10.20;80.50;;;;;;5047345;28;20443;-51
2022/11/20 00:09:21;;;;;;;4.50;4.03;;;10.20;80.50;;;;;;5044093;28;20980;-51
2022/11/20 00:11:51;;;;;;;5.37;4.50;;;10.20;80.50;;;;;;5057587;28;20467;-49
2022/11/20 00:14:20;;;;;;;4.20;3.80;;;10.20;80.50;;;;;;5066510;28;20474;-51
2022/11/20 00:16:50;;;;;;;4.17;3.50;;;10.20;80.50;;;;;;5046935;28;20443;-50
2022/11/20 00:19:24;;;;;;;3.33;3.00;;;10.20;80.50;;;;;;5065941;28;20469;-49
2022/11/20 00:21:55;;;;;;;3.77;3.37;;;10.10;80.40;;;;;;5048896;28;20424;-51
2022/11/20 00:24:27;;;;;;;5.40;3.63;;;10.20;80.50;;;;;;5055376;28;20549;-51
2022/11/20 00:26:58;;;;;;;4.10;3.63;;;10.20;80.50;;;;;;5041861;28;20823;-49
2022/11/20 00:29:28;;;;;;;4.60;3.50;;;10.10;80.40;;;;;;5048523;28;20444;-52
2022/11/20 00:31:59;;;;;;;4.73;3.90;;;10.10;80.40;;;;;;5046346;28;20546;-51
2022/11/20 00:34:31;;;;;;;4.80;3.90;;;10.20;80.50;;;;;;5063830;28;20466;-51
2022/11/20 00:37:09;;;;;;;4.13;3.73;;;10.10;80.40;;;;;;5048611;28;20443;-49
2022/11/20 00:39:45;;;;;;;5.50;4.37;;;10.10;80.40;;;;;;5037949;28;20520;-50
2022/11/20 00:42:14;;;;;;;3.33;3.03;;;10.10;80.50;;;;;;5048366;28;20439;-50
2022/11/20 00:44:56;;;;;;;5.43;4.03;;;10.10;80.50;;;;;;5045451;28;20466;-51
2022/11/20 00:47:37;;;;;;;5.60;4.10;;;10.10;80.40;;;;;;5041735;28;20466;-50
2022/11/20 00:50:07;;;;;;;4.43;4.03;;;10.10;80.50;;;;;;5047136;28;20486;-49
2022/11/20 00:52:44;;;;;;;4.40;3.73;;;10.20;80.50;;;;;;5063263;28;20512;-51
2022/11/20 00:55:15;;;;;;;5.20;3.90;;;10.10;80.50;;;;;;5048820;28;20470;-50
2022/11/20 00:57:53;;;;;;;4.20;3.80;;;10.10;80.50;;;;;;5040214;28;20618;-49
2022/11/20 01:00:32;;;;;;;4.50;4.07;;;10.10;80.50;;;;;;5048415;28;20554;-49
2022/11/20 01:03:01;;;;;;;4.83;3.90;;;10.10;80.50;;;;;;5076010;28;20824;-50
2022/11/20 01:05:35;;;;;;;5.27;3.50;;;10.10;80.50;;;;;;5054984;28;21007;-51
2022/11/20 01:08:05;;;;;;;3.80;3.50;;;10.10;80.50;;;;;;5064671;28;20991;-50
2022/11/20 01:10:38;;;;;;;3.80;3.50;;;10.10;80.50;;;;;;5059221;28;21012;-50
2022/11/20 01:16:16;;;;;;;7.17;4.17;;;10.10;80.50;;;;;;5079444;28;20462;-50
2022/11/20 01:18:48;;;;;;;4.10;3.37;;;10.10;80.50;;;;;;5047318;28;20529;-51
2022/11/20 01:21:24;;;;;;;4.50;3.27;;;10.10;80.50;;;;;;5056921;28;20889;-49
2022/11/20 01:24:03;;;;;;;4.30;3.60;;;10.10;80.50;;;;;;5035714;28;20466;-50
2022/11/20 01:26:35;;;;;;;4.80;3.80;;;10.10;80.50;;;;;;5041459;28;20959;-51
2022/11/20 01:29:06;;;;;;;3.77;3.47;;;10.10;80.50;;;;;;5051473;28;20443;-51
2022/11/20 01:31:39;;;;;;;3.67;3.37;;;10.10;80.50;;;;;;5045754;28;20439;-50
2022/11/20 01:34:16;;;;;;;6.27;4.70;;;10.10;80.50;;;;;;5038609;28;20575;-49
2022/11/20 01:36:57;;;;;;;4.40;4.00;;;10.10;80.60;;;;;;5039907;28;20447;-50
2022/11/20 01:39:30;;;;;;;4.80;3.87;;;10.00;80.50;;;;;;5046970;28;20505;-51
2022/11/20 01:44:55;;;;;;;4.37;3.30;;;10.10;80.60;;;;;;5046461;28;20839;-50
2022/11/20 01:47:33;;;;;;;3.77;3.47;;;10.00;80.50;;;;;;5045523;28;20538;-50
2022/11/20 01:50:12;;;;;;;5.20;3.73;;;10.10;80.60;;;;;;5038551;28;20463;-50
2022/11/20 01:52:47;;;;;;;4.73;4.23;;;10.10;80.50;;;;;;5047425;28;20462;-50
2022/11/20 01:55:22;;;;;;;6.50;4.03;;;10.10;80.50;;;;;;5045068;28;20475;-51
2022/11/20 01:57:54;;;;;;;4.43;4.03;;;10.10;80.60;;;;;;5054417;28;20465;-49
2022/11/20 02:00:25;;;;;;;5.00;4.00;;;10.10;80.60;;;;;;5046132;28;20475;-50
2022/11/20 02:03:03;;;;;;;4.00;3.60;;;10.10;80.60;;;;;;5053927;28;20512;-50
2022/11/20 02:05:57;;;;;;;3.90;3.50;;;10.10;80.90;;;;;;5054524;28;20471;-50
2022/11/20 02:08:27;;;;;;;4.70;3.70;;;10.00;80.50;;;;;;5046918;28;20427;-50
2022/11/20 02:10:56;;;;;;;5.83;4.90;;;10.00;80.50;;;;;;5045176;28;20795;-50
2022/11/20 02:13:44;;;;;;;4.20;3.80;;;10.00;80.50;;;;;;5047309;28;20543;-51
2022/11/20 02:16:23;;;;;;;3.93;3.37;;;10.00;80.50;;;;;;5044314;28;20462;-50
2022/11/20 02:18:57;;;;;;;5.70;3.97;;;10.00;80.50;;;;;;5038823;28;20505;-51
2022/11/20 02:21:36;;;;;;;4.37;3.73;;;10.00;80.50;;;;;;5060396;28;20462;-50
2022/11/20 02:24:11;;;;;;;3.87;3.47;;;10.00;80.50;;;;;;5044424;28;20463;-50
2022/11/20 02:26:45;;;;;;;4.00;3.33;;;10.00;80.50;;;;;;5018955;28;21002;-50
2022/11/20 02:29:21;;;;;;;5.20;3.27;;;10.00;80.50;;;;;;5026525;28;20435;-51
2022/11/20 02:32:21;;;;;;;3.87;3.20;;;10.00;80.60;;;;;;5025427;28;20444;-51
2022/11/20 02:34:55;;;;;;;4.37;3.40;;;10.00;80.60;;;;;;5025412;28;20475;-51
2022/11/20 02:37:36;;;;;;;6.10;2.93;;;10.00;80.50;;;;;;5043264;28;20801;-49
2022/11/20 02:41:05;;;;;;;4.43;3.50;;;10.00;80.50;;;;;;5036760;28;20470;-50
2022/11/20 02:46:45;;;;;;;6.47;4.00;;;10.00;80.50;;;;;;5025746;28;20463;-51
2022/11/20 02:49:19;;;;;;;4.20;3.73;;;10.00;80.60;;;;;;5033777;28;20942;-51
2022/11/20 02:51:49;;;;;;;5.00;3.83;;;10.00;80.50;;;;;;5046535;28;20442;-50
2022/11/20 02:54:24;;;;;;;4.13;3.57;;;10.00;80.60;;;;;;5046444;28;20520;-50
2022/11/20 02:57:29;;;;;;;5.13;3.50;;;10.00;80.50;;;;;;5040124;28;20447;-51
2022/11/20 02:59:59;;;;;;;4.10;3.50;;;9.90;81.50;;;;;;5022987;28;20470;-50
2022/11/20 03:02:33;;;;;;;4.10;3.50;;;10.00;80.50;;;;;;5018099;28;20496;-51
2022/11/20 03:05:03;;;;;;;5.63;4.83;;;10.00;80.50;;;;;;5050016;28;20551;-51
2022/11/20 03:07:33;;;;;;;3.90;3.53;;;9.90;81.50;;;;;;5046521;28;20485;-51
2022/11/20 03:10:02;;;;;;;4.03;3.63;;;9.90;81.50;;;;;;5046921;28;20483;-49
2022/11/20 03:12:41;;;;;;;4.80;4.07;;;9.90;81.50;;;;;;5054396;28;21051;-51
2022/11/20 03:15:11;;;;;;;5.40;3.63;;;9.90;81.50;;;;;;5049152;28;20467;-51
2022/11/20 03:17:44;;;;;;;7.40;4.43;;;9.90;81.50;;;;;;5048141;28;20574;-49
2022/11/20 03:20:15;;;;;;;4.87;4.00;;;9.90;81.50;;;;;;5047420;28;20475;-51
2022/11/20 03:22:48;;;;;;;5.30;3.57;;;9.90;81.50;;;;;;5049643;28;20542;-51
2022/11/20 03:25:24;;;;;;;4.17;3.77;;;9.90;81.60;;;;;;5045802;28;20847;-50
2022/11/20 03:27:58;;;;;;;4.30;3.77;;;9.90;81.60;;;;;;5055906;28;20431;-50
2022/11/20 03:30:27;;;;;;;5.07;4.00;;;9.90;81.60;;;;;;5064570;28;20475;-51
2022/11/20 03:32:59;;;;;;;5.33;4.37;;;9.90;81.50;;;;;;5049385;28;20447;-50
2022/11/20 03:35:29;;;;;;;5.00;3.77;;;9.90;81.50;;;;;;5048635;28;20463;-50
2022/11/20 03:37:59;;;;;;;3.80;3.03;;;9.90;81.60;;;;;;5066452;28;20527;-50
2022/11/20 03:41:00;;;;;;;6.27;4.57;;;9.90;81.60;;;;;;5047588;28;21049;-53
2022/11/20 03:43:36;;;;;;;4.10;3.70;;;9.90;81.60;;;;;;5049758;28;20962;-51
2022/11/20 03:46:07;;;;;;;5.13;4.17;;;9.90;81.50;;;;;;5047873;28;20534;-50
2022/11/20 03:48:54;;;;;;;5.20;4.40;;;9.90;81.50;;;;;;5041874;28;20461;-51
2022/11/20 03:51:47;;;;;;;4.47;3.80;;;9.90;81.50;;;;;;5053872;28;20431;-51
2022/11/20 03:54:17;;;;;;;4.20;3.80;;;9.90;81.50;;;;;;5047302;28;20469;-51
2022/11/20 03:56:52;;;;;;;5.47;3.20;;;9.90;82.80;;;;;;5049129;28;20447;-51
2022/11/20 03:59:24;;;;;;;4.00;3.60;;;9.90;81.50;;;;;;5054705;28;20520;-50
2022/11/20 04:02:16;;;;;;;6.20;4.13;;;9.90;81.50;;;;;;5072607;28;20459;-51
2022/11/20 04:04:47;;;;;;;5.27;3.40;;;9.90;81.50;;;;;;5051383;28;20977;-51
2022/11/20 04:07:19;;;;;;;5.00;3.63;;;9.90;81.60;;;;;;5043131;28;20428;-51
2022/11/20 04:09:48;;;;;;;7.53;4.00;;;9.90;81.60;;;;;;5046077;28;20466;-50
2022/11/20 04:12:20;;;;;;;5.90;3.70;;;9.90;81.70;;;;;;5051685;28;20805;-50
2022/11/20 04:14:51;;;;;;;6.17;3.70;;;9.90;81.60;;;;;;5048122;28;20553;-51
2022/11/20 04:17:20;;;;;;;4.97;3.93;;;9.80;81.60;;;;;;5048557;28;20470;-51
2022/11/20 04:19:52;;;;;;;4.27;3.87;;;9.80;81.50;;;;;;5043981;28;20468;-50
2022/11/20 04:22:25;;;;;;;3.40;3.10;;;9.90;81.50;;;;;;5045890;28;20552;-51
2022/11/20 04:24:55;;;;;;;4.37;3.80;;;9.90;81.60;;;;;;5054999;28;20480;-50
2022/11/20 04:27:32;;;;;;;3.63;3.33;;;9.90;81.60;;;;;;5048734;28;20439;-49
2022/11/20 04:30:09;;;;;;;4.97;3.63;;;9.80;81.50;;;;;;5046612;28;20462;-50
2022/11/20 04:32:40;;;;;;;4.30;3.90;;;9.80;81.50;;;;;;5047884;28;20906;-50
2022/11/20 04:35:18;;;;;;;4.97;3.97;;;9.80;81.70;;;;;;5047987;28;20455;-50
2022/11/20 04:37:51;;;;;;;5.10;3.77;;;9.90;81.60;;;;;;5048532;28;20822;-50
2022/11/20 04:40:21;;;;;;;4.57;4.17;;;9.90;81.50;;;;;;5046946;28;20463;-51
2022/11/20 04:42:50;;;;;;;4.30;3.90;;;9.80;81.50;;;;;;5048016;28;20477;-51
2022/11/20 04:45:22;;;;;;;4.60;3.13;;;9.80;81.50;;;;;;5054048;28;20516;-50
2022/11/20 04:47:56;;;;;;;3.93;3.47;;;9.80;81.50;;;;;;5046306;28;20446;-50
2022/11/20 04:50:26;;;;;;;6.77;4.10;;;9.80;81.50;;;;;;5030488;28;20476;-51
2022/11/20 04:52:58;;;;;;;4.23;3.83;;;9.80;81.50;;;;;;5028537;28;20478;-52
2022/11/20 04:55:28;;;;;;;4.70;4.20;;;9.80;81.50;;;;;;5026403;28;20542;-50
2022/11/20 04:57:58;;;;;;;4.70;3.80;;;9.80;81.50;;;;;;5028139;28;20443;-50
2022/11/20 05:00:30;;;;;;;4.00;3.60;;;9.80;81.60;;;;;;5029305;28;20508;-51
2022/11/20 05:03:00;;;;;;;4.87;3.70;;;9.80;81.60;;;;;;5020005;28;20460;-49
2022/11/20 05:05:32;;;;;;;3.17;2.90;;;9.80;81.60;;;;;;5020437;28;20463;-48
2022/11/20 05:08:30;;;;;;;3.63;3.33;;;9.80;81.60;;;;;;5024181;28;20436;-51
2022/11/20 05:11:28;;;;;;;4.67;3.60;;;9.80;81.50;;;;;;5055751;28;21108;-52
2022/11/20 05:14:18;;;;;;;4.20;3.20;;;9.80;81.60;;;;;;4998729;28;20486;-50
2022/11/20 05:16:51;;;;;;;5.00;3.27;;;9.80;81.60;;;;;;5026664;28;20523;-52
2022/11/20 05:19:22;;;;;;;3.30;3.00;;;9.80;82.80;;;;;;5027293;28;20903;-51
2022/11/20 05:21:53;;;;;;;4.23;3.60;;;9.80;81.60;;;;;;5020575;28;20463;-51
2022/11/20 05:24:25;;;;;;;4.10;3.20;;;9.80;81.60;;;;;;5026516;28;20480;-51
2022/11/20 05:26:56;;;;;;;5.90;3.80;;;9.80;81.70;;;;;;5035186;28;20436;-50
2022/11/20 05:29:26;;;;;;;6.17;3.63;;;9.80;81.60;;;;;;5033035;28;20459;-54
2022/11/20 05:31:59;;;;;;;3.70;3.30;;;9.80;81.60;;;;;;5047303;28;20590;-49
2022/11/20 05:34:32;;;;;;;4.43;4.00;;;9.80;81.60;;;;;;5038113;28;20459;-50
2022/11/20 06:23:06;;;;;;;5.60;3.03;;;9.70;81.70;;;;;;4684847;30;20700;-51
2022/11/20 06:25:38;;;;;;;3.30;2.87;;;9.70;81.70;;;;;;4762291;29;20549;-50
2022/11/20 06:28:07;;;;;;;4.57;3.50;;;9.70;81.70;;;;;;4837997;28;20824;-49
2022/11/20 06:30:36;;;;;;;5.23;3.83;;;9.70;83.00;;;;;;4961558;28;20475;-50
2022/11/20 06:33:04;;;;;;;3.77;2.80;;;9.70;81.60;;;;;;4959879;28;20443;-50
2022/11/20 06:35:33;;;;;;;4.37;3.37;;;9.70;81.70;;;;;;4979336;28;20483;-49
2022/11/20 06:38:02;;;;;;;4.13;3.00;;;9.70;81.70;;;;;;4982285;28;20439;-51
2022/11/20 06:40:33;;;;;;;3.90;3.50;;;9.70;81.70;;;;;;4965043;28;20513;-51
2022/11/20 06:43:03;;;;;;;5.97;3.87;;;9.70;81.70;;;;;;4952863;28;20569;-49
2022/11/20 06:45:31;;;;;;;4.97;3.70;;;9.70;81.70;;;;;;4995835;28;20606;-50
2022/11/20 06:48:00;;;;;;;5.80;4.37;;;9.70;81.70;;;;;;5062682;28;20447;-50
2022/11/20 06:50:28;;;;;;;4.40;3.60;;;9.60;81.60;;;;;;5061815;28;20471;-52
2022/11/20 06:52:57;;;;;;;5.90;4.00;;;9.70;81.70;;;;;;5034209;28;20451;-49
2022/11/20 06:55:25;;;;;;;4.23;3.83;;;9.70;81.70;;;;;;5043966;28;20463;-50
2022/11/20 06:57:54;;;;;;;4.23;3.83;;;9.70;83.00;;;;;;5052756;28;20965;-51
2022/11/20 07:00:25;;;;;;;3.87;3.03;;;9.70;81.80;;;;;;5052419;28;20458;-49
2022/11/20 07:02:53;;;;;;;4.70;3.90;;;9.70;81.70;;;;;;5064304;28;20605;-50
2022/11/20 07:05:21;;;;;;;3.90;3.40;;;9.60;81.60;;;;;;5048766;28;20543;-50
2022/11/20 07:07:50;;;;;;;4.70;3.97;;;9.60;81.70;;;;;;5054037;28;20446;-51
2022/11/20 07:10:18;;;;;;;3.80;3.40;;;9.60;81.70;;;;;;5046851;28;20994;-49
2022/11/20 07:12:51;;;;;;;3.90;3.40;;;9.60;81.70;;;;;;5052668;28;21069;-51
2022/11/20 07:15:20;;;;;;;4.50;3.70;;;9.60;81.60;;;;;;5057184;28;21075;-50
2022/11/20 07:17:50;;;;;;;4.40;3.50;;;9.60;81.70;;;;;;5048525;28;20467;-50
2022/11/20 07:20:19;;;;;;;4.90;3.83;;;9.60;81.70;;;;;;5050193;28;20478;-50
2022/11/20 07:22:47;;;;;;;3.13;2.67;;;9.60;81.70;;;;;;5054334;28;20479;-49
2022/11/20 07:25:15;;;;;;;3.60;3.10;;;9.60;81.70;;;;;;5047173;28;20488;-49
2022/11/20 07:27:44;;;;;;;4.27;2.90;;;9.60;81.70;;;;;;5051084;28;20442;-50
2022/11/20 07:30:14;;;;;;;3.83;3.20;;;9.60;81.70;;;;;;5040365;28;21002;-51
2022/11/20 07:32:43;;;;;;;4.83;3.63;;;9.60;81.70;;;;;;5046875;28;20528;-50
2022/11/20 07:35:13;;;;;;;4.50;3.80;;;9.60;81.70;;;;;;5050607;28;20468;-51
2022/11/20 07:37:41;;;;;;;3.67;3.20;;;9.60;81.80;;;;;;5048440;28;20591;-49
2022/11/20 07:40:11;;;;;;;3.70;3.40;;;9.60;81.70;;;;;;5048813;28;20494;-49
2022/11/20 07:42:39;;;;;;;3.60;3.23;;;9.60;81.80;;;;;;5052853;28;21008;-49
2022/11/20 07:45:09;;;;;;;4.50;3.43;;;9.60;81.70;;;;;;5056397;28;20474;-49
2022/11/20 07:47:37;;;;;;;3.63;3.33;;;9.60;81.80;;;;;;5053050;28;20479;-49
2022/11/20 07:50:07;;;;;;;4.30;3.90;;;9.60;81.70;;;;;;5047964;28;20463;-49
2022/11/20 07:52:37;;;;;;;4.40;3.80;;;9.60;81.70;;;;;;5046493;28;20826;-49
2022/11/20 07:55:06;;;;;;;4.33;3.40;;;9.60;81.70;;;;;;5050558;28;20475;-49
2022/11/20 07:57:34;;;;;;;5.03;3.40;;;9.60;81.70;;;;;;5047967;28;20528;-51
2022/11/20 08:00:04;;;;;;;4.67;3.03;;;9.60;81.80;;;;;;5051044;28;21057;-49
2022/11/20 08:02:40;;;;;;;3.57;3.20;;;9.60;81.80;;;;;;5049805;28;20471;-49
2022/11/20 08:05:09;;;;;;;4.20;3.73;;;9.60;81.80;;;;;;5050634;28;20562;-50
2022/11/20 08:07:40;;;;;;;6.60;4.00;;;9.60;81.80;;;;;;5052803;28;20455;-51
2022/11/20 08:10:10;;;;;;;4.27;3.40;;;9.50;81.70;;;;;;5045421;28;20953;-50
2022/11/20 08:15:30;;;;;;;3.37;3.07;;;9.60;82.00;;;;;;5052552;28;20525;-49
2022/11/20 08:18:04;;;;;;;5.27;3.87;;;9.50;81.70;;;;;;5048446;28;20520;-51
2022/11/20 08:20:52;;;;;;;5.30;4.10;;;9.50;81.70;;;;;;5048092;28;21009;-50
2022/11/20 08:23:24;;;;;;;4.97;3.40;;;9.50;81.90;;;;;;5071178;28;20466;-49
2022/11/20 08:25:52;;;;;;;6.77;5.10;;;9.60;82.00;;;;;;5049311;28;20540;-51
2022/11/20 08:28:21;;;;;;;14.73;5.70;;;9.60;82.40;;;;;;5057589;28;20434;-51
2022/11/20 08:30:50;;;;;;;12.00;6.60;;;9.60;82.30;;;;;;5043488;28;20563;-49
2022/11/20 08:33:19;;;;;;;11.63;7.50;;;9.60;82.20;;;;;;5054715;28;20458;-51
2022/11/20 08:35:48;;;;;;;14.83;8.67;;;9.60;82.10;;;;;;5048277;28;20474;-48
2022/11/20 08:38:16;;;;;;;13.05;9.73;;;9.60;82.40;;;;;;5060610;28;20687;-49
2022/11/20 08:41:23;;;;;;;11.60;8.10;;;9.50;81.10;;;;;;5050140;28;20251;-49
2022/11/20 08:43:35;;;;;;;14.87;8.00;;;9.50;81.40;;;;;;5078273;28;20478;-51
2022/11/20 08:46:03;;;;;;;13.57;7.53;;;9.50;81.50;;;;;;5047317;28;20442;-51
2022/11/20 08:48:31;;;;;;;12.40;7.80;;;9.50;81.60;;;;;;5052504;28;20473;-50
2022/11/20 08:51:00;;;;;;;10.03;7.10;;;9.50;81.70;;;;;;5051940;28;20480;-50
2022/11/20 08:53:29;;;;;;;12.97;6.90;;;9.50;81.60;;;;;;5048236;28;20466;-49
2022/11/20 08:55:59;;;;;;;10.83;8.10;;;9.50;81.50;;;;;;5046946;28;20618;-49
2022/11/20 08:58:28;;;;;;;10.67;7.13;;;9.50;81.60;;;;;;5047393;28;20517;-49
2022/11/20 09:00:58;;;;;;;11.07;8.03;;;9.50;81.70;;;;;;5045460;28;20471;-49
2022/11/20 09:03:27;;;;;;;9.97;7.87;;;9.50;81.70;;;;;;5064224;28;20516;-50
2022/11/20 09:06:01;;;;;;;9.90;6.70;;;9.50;81.60;;;;;;5048636;28;20451;-50
2022/11/20 09:08:30;;;;;;;9.40;7.13;;;9.50;81.60;;;;;;5046943;28;20574;-49
2022/11/20 09:11:00;;;;;;;7.40;5.87;;;9.50;81.60;;;;;;5045953;28;21092;-51
2022/11/20 09:13:29;;;;;;;8.37;6.23;;;9.50;81.60;;;;;;5047059;28;20447;-50
2022/11/20 09:16:00;;;;;;;9.97;7.23;;;9.50;81.60;;;;;;5025579;28;20526;-50
2022/11/20 09:18:31;;;;;;;9.93;7.00;;;9.50;81.70;;;;;;5022089;28;20432;-50
2022/11/20 09:21:04;;;;;;;11.65;6.53;;;9.50;81.70;;;;;;5048286;28;20463;-49
2022/11/20 09:23:35;;;;;;;9.13;6.37;;;9.50;81.60;;;;;;5046861;28;20691;-49
2022/11/20 09:26:06;;;;;;;8.20;6.43;;;9.50;81.70;;;;;;5045742;28;20521;-50
2022/11/20 09:28:34;;;;;;;8.50;6.60;;;9.50;81.70;;;;;;5064288;28;20498;-49
2022/11/20 09:31:06;;;;;;;7.37;5.10;;;9.50;81.60;;;;;;5041847;28;21048;-51
2022/11/20 09:33:36;;;;;;;6.70;5.23;;;9.50;81.70;;;;;;5051775;28;20509;-50
2022/11/20 09:36:05;;;;;;;8.13;6.30;;;9.50;81.70;;;;;;5047694;28;20501;-49
2022/11/20 09:38:33;;;;;;;11.00;7.60;;;9.50;81.60;;;;;;5047010;28;20530;-51
2022/11/20 09:41:07;;;;;;;6.90;5.47;;;9.50;81.80;;;;;;5050614;28;20993;-51
2022/11/20 09:43:48;;;;;;;8.60;5.87;;;9.40;81.60;;;;;;5048215;28;20541;-49
2022/11/20 09:46:24;;;;;;;6.77;5.93;;;9.40;81.60;;;;;;5066156;28;20446;-49
2022/11/20 09:49:15;;;;;;;7.20;5.73;;;9.50;81.70;;;;;;5076864;28;20481;-49
2022/11/20 09:51:53;;;;;;;7.60;5.13;;;9.50;81.80;;;;;;5051996;28;20444;-51
2022/11/20 09:54:27;;;;;;;10.47;7.17;;;9.40;81.70;;;;;;5063322;28;20455;-49
2022/11/20 09:57:02;;;;;;;6.17;5.27;;;9.40;81.60;;;;;;5048540;28;20857;-50
2022/11/20 09:59:37;;;;;;;7.03;5.10;;;9.40;81.60;;;;;;5052233;28;20479;-50
2022/11/20 10:02:17;;;;;;;7.50;4.90;;;9.40;81.80;;;;;;5046269;28;20447;-49
2022/11/20 10:04:50;;;;;;;6.30;5.23;;;9.40;81.80;;;;;;5048024;28;20503;-50
2022/11/20 10:07:24;;;;;;;7.60;5.80;;;9.40;81.80;;;;;;5055551;28;20442;-49
2022/11/20 10:10:00;;;;;;;9.40;5.40;;;9.40;81.90;;;;;;5070683;28;20478;-51
2022/11/20 10:12:41;;;;;;;7.93;5.37;;;9.40;81.70;;;;;;5048860;28;20546;-50
2022/11/20 10:15:20;;;;;;;9.37;6.27;;;9.40;81.70;;;;;;5045791;28;20471;-49
2022/11/20 10:18:05;;;;;;;7.43;5.93;;;9.40;81.70;;;;;;5047645;28;20439;-49
2022/11/20 10:20:42;;;;;;;9.90;7.00;;;9.40;81.80;;;;;;5053405;28;20501;-51
2022/11/20 10:23:31;;;;;;;10.35;6.20;;;9.40;81.80;;;;;;5054460;28;20454;-49
2022/11/20 10:26:04;;;;;;;5.30;4.63;;;9.40;81.90;;;;;;5049465;28;20769;-51
2022/11/20 10:28:54;;;;;;;9.00;5.40;;;9.40;81.90;;;;;;5050005;28;20435;-50
2022/11/20 10:31:33;;;;;;;6.57;5.17;;;9.40;82.00;;;;;;5054756;28;20540;-50
2022/11/20 10:34:06;;;;;;;7.97;5.87;;;9.40;81.90;;;;;;5070528;28;20546;-50
2022/11/20 10:36:45;;;;;;;7.03;5.10;;;9.40;81.90;;;;;;5054939;28;20464;-50
2022/11/20 10:39:23;;;;;;;6.93;4.73;;;9.40;82.00;;;;;;5050512;28;20588;-50
2022/11/20 10:41:54;;;;;;;8.77;6.20;;;9.40;81.90;;;;;;5048596;28;20446;-51
2022/11/20 10:47:16;;;;;;;7.77;5.57;;;9.40;82.00;;;;;;5056978;28;20493;-50
2022/11/20 10:49:47;;;;;;;10.17;6.73;;;9.30;81.90;;;;;;5048821;28;20876;-48
2022/11/20 10:52:26;;;;;;;7.60;5.40;;;9.40;82.10;;;;;;5066945;28;20445;-50
2022/11/20 10:55:03;;;;;;;9.00;5.87;;;9.30;82.00;;;;;;5053597;28;20478;-48
2022/11/20 10:57:52;;;;;;;9.50;5.90;;;9.30;82.10;;;;;;5053758;28;21816;-49
2022/11/20 11:00:23;;;;;;;7.57;4.80;;;9.30;82.00;;;;;;5049219;28;20969;-49
2022/11/20 11:02:53;;;;;;;12.30;7.83;;;9.30;82.10;;;;;;5049797;28;20294;-49
2022/11/20 11:05:37;;;;;;;10.82;6.78;;;9.30;82.20;;;;;;5049741;28;21064;-51
2022/11/20 11:08:12;;;;;;;11.38;7.72;;;9.30;82.20;;;;;;5051046;28;20193;-49
2022/11/20 11:10:46;;;;;;;10.63;6.85;;;9.30;82.10;;;;;;5048254;28;20274;-49
2022/11/20 11:13:22;;;;;;;8.87;6.60;;;9.30;82.20;;;;;;5056016;28;20212;-49
2022/11/20 11:15:52;;;;;;;10.77;7.97;;;9.30;82.30;;;;;;5052710;28;20490;-49
2022/11/20 11:18:26;;;;;;;7.33;5.47;;;9.30;82.20;;;;;;5050118;28;20877;-49
2022/11/20 11:20:58;;;;;;;7.57;5.88;;;9.30;82.20;;;;;;5047083;28;20463;-49
2022/11/20 11:23:36;;;;;;;9.73;6.67;;;9.30;82.30;;;;;;5048174;28;20254;-49
2022/11/20 11:26:06;;;;;;;8.23;6.32;;;9.30;82.20;;;;;;5056216;28;20486;-50
2022/11/20 11:28:35;;;;;;;8.07;6.63;;;9.30;82.30;;;;;;5049690;28;20197;-50
2022/11/20 11:31:05;;;;;;;8.17;6.67;;;9.30;82.20;;;;;;5047408;28;20447;-48
2022/11/20 11:33:34;;;;;;;7.77;6.67;;;9.30;82.30;;;;;;5049422;28;20554;-50
2022/11/20 11:36:05;;;;;;;7.30;6.37;;;9.30;82.20;;;;;;5066802;28;20438;-50
2022/11/20 11:38:37;;;;;;;10.23;6.70;;;9.30;82.40;;;;;;5050750;28;20427;-48
2022/11/20 11:41:16;;;;;;;9.52;6.75;;;9.30;82.30;;;;;;5049676;28;20455;-51
2022/11/20 11:46:51;;;;;;;9.20;6.00;;;9.30;82.40;;;;;;5063492;28;20411;-51
2022/11/20 11:49:20;;;;;;;7.93;6.30;;;9.30;82.30;;;;;;5047645;28;20858;-50
2022/11/20 11:52:01;;;;;;;9.25;6.57;;;9.30;82.30;;;;;;5054384;28;20442;-50
2022/11/20 11:54:37;;;;;;;8.00;5.77;;;9.30;82.50;;;;;;5050811;28;20589;-50
2022/11/20 11:57:15;;;;;;;7.10;5.80;;;9.30;82.30;;;;;;5049363;28;20447;-50
2022/11/20 11:59:55;;;;;;;7.03;5.55;;;9.30;82.30;;;;;;5047758;28;20497;-49
2022/11/20 12:02:33;;;;;;;8.00;5.70;;;9.30;82.30;;;;;;5048798;28;20703;-48
2022/11/20 12:05:13;;;;;;;12.13;5.57;;;9.30;82.40;;;;;;5057817;28;21024;-49
2022/11/20 12:07:44;;;;;;;6.23;5.13;;;9.20;82.40;;;;;;5055194;28;20789;-50
2022/11/20 12:10:22;;;;;;;8.77;6.38;;;9.30;82.50;;;;;;5043122;28;21004;-48
2022/11/20 12:13:00;;;;;;;7.67;5.73;;;9.30;82.60;;;;;;5050223;28;20295;-51
2022/11/20 12:15:31;;;;;;;8.30;5.20;;;9.30;82.60;;;;;;5047762;28;20462;-48
2022/11/20 12:18:03;;;;;;;8.43;5.60;;;9.30;82.70;;;;;;5081234;28;20242;-49
2022/11/20 12:20:42;;;;;;;7.30;5.78;;;9.30;82.70;;;;;;5047524;28;20661;-49
2022/11/20 12:23:19;;;;;;;9.07;6.50;;;9.20;82.60;;;;;;5049290;28;20208;-48
2022/11/20 12:25:53;;;;;;;8.10;6.30;;;9.30;82.80;;;;;;5046804;28;20222;-50
2022/11/20 12:28:45;;;;;;;7.97;4.80;;;9.30;82.70;;;;;;5065686;28;20655;-48
2022/11/20 12:31:40;;;;;;;8.90;5.90;;;9.30;82.60;;;;;;5022030;28;20517;-50
2022/11/20 12:34:25;;;;;;;7.23;5.80;;;9.30;82.60;;;;;;5028452;28;20554;-49
2022/11/20 12:37:01;;;;;;;6.87;5.70;;;9.30;82.70;;;;;;5020265;28;21013;-51
2022/11/20 12:39:36;;;;;;;10.90;7.33;;;9.30;82.70;;;;;;5034164;28;20562;-50
2022/11/20 12:45:55;;;;;;;10.45;6.70;;;9.30;82.90;;;;;;5021976;28;20995;-51
2022/11/20 12:48:54;;;;;;;10.50;6.37;;;9.20;83.10;;;;;;4986981;28;20573;-48
2022/11/20 12:52:05;;;;;;;8.88;5.93;;;9.20;83.00;;;;;;5012311;28;20488;-50
2022/11/20 12:55:04;;;;;;;7.85;5.82;;;9.20;83.40;;;;;;4932000;29;20231;-50
2022/11/20 12:57:45;;;;;;;6.93;5.83;;;9.20;83.10;;;;;;4926471;29;20801;-49
2022/11/20 13:00:26;;;;;;;8.88;6.95;;;9.20;83.10;;;;;;5009007;28;20474;-49
2022/11/20 13:03:19;;;;;;;9.70;6.23;;;9.20;83.30;;;;;;5042764;28;20217;-49
2022/11/20 13:05:55;;;;;;;11.63;7.47;;;9.20;83.30;;;;;;5034664;28;20790;-50
2022/11/20 13:08:31;;;;;;;8.30;6.82;;;9.20;83.70;;;;;;5044929;28;20197;-49
2022/11/20 13:11:07;;;;;;;9.07;6.70;;;9.20;83.60;;;;;;5027551;28;20312;-50
2022/11/20 13:13:45;;;;;;;14.60;7.10;;;9.20;83.70;;;;;;5033261;28;20241;-51
2022/11/20 13:16:24;;;;;;;8.13;6.45;;;9.20;83.60;;;;;;5033457;28;20841;-51
2022/11/20 13:19:05;;;;;;;9.95;6.25;;;9.20;83.70;;;;;;5043561;28;20192;-49
2022/11/20 13:21:49;;;;;;;7.93;6.05;;;9.20;83.70;;;;;;5027580;28;20197;-50
2022/11/20 13:24:29;;;;;;;14.33;8.17;;;9.20;83.60;;;;;;5034809;28;20278;-49
2022/11/20 13:27:51;;;;;;;9.77;5.65;;;9.20;83.60;;;;;;5030097;28;20440;-51
2022/11/20 13:30:37;;;;;;;5.63;4.97;;;9.20;83.70;;;;;;5042172;28;20299;-50
2022/11/20 13:33:34;;;;;;;6.68;5.10;;;9.20;83.70;;;;;;5046413;28;20207;-51
2022/11/20 13:36:34;;;;;;;9.10;6.30;;;9.20;83.60;;;;;;5046240;28;20211;-50
2022/11/20 13:39:13;;;;;;;9.13;5.97;;;9.20;83.60;;;;;;5047551;28;20821;-50
2022/11/20 13:41:59;;;;;;;7.30;5.30;;;9.20;83.70;;;;;;5046115;28;20563;-50
2022/11/20 13:44:42;;;;;;;7.63;4.93;;;9.20;83.60;;;;;;5066897;28;20895;-49
2022/11/20 13:47:36;;;;;;;12.68;7.13;;;9.20;83.60;;;;;;5047449;28;20467;-50
2022/11/20 13:50:13;;;;;;;6.70;5.47;;;9.20;83.70;;;;;;5033134;28;20306;-51
2022/11/20 13:53:31;;;;;;;12.23;6.93;;;9.20;83.70;;;;;;5047427;28;20469;-48
2022/11/20 13:56:07;;;;;;;7.80;5.70;;;9.20;83.70;;;;;;5045144;28;20838;-50
2022/11/20 13:59:15;;;;;;;9.02;5.82;;;9.20;83.70;;;;;;5031528;28;20444;-49
2022/11/20 14:01:53;;;;;;;6.95;5.63;;;9.20;83.60;;;;;;5059889;28;20620;-49
2022/11/20 14:04:30;;;;;;;7.95;5.57;;;9.20;83.70;;;;;;5047686;28;20304;-51
2022/11/20 14:07:17;;;;;;;8.93;5.60;;;9.20;83.70;;;;;;5065915;28;20223;-50
2022/11/20 14:09:53;;;;;;;7.18;4.70;;;9.20;83.70;;;;;;5048320;28;20471;-51
2022/11/20 14:12:28;;;;;;;6.25;4.93;;;9.20;83.60;;;;;;5046430;28;20224;-50
2022/11/20 14:15:00;;;;;;;11.43;6.63;;;9.20;83.70;;;;;;5057961;28;20223;-49
2022/11/20 14:17:32;;;;;;;7.10;5.87;;;9.20;83.60;;;;;;5076703;28;20686;-49
2022/11/20 14:20:05;;;;;;;6.87;4.70;;;9.20;83.60;;;;;;5052613;28;20467;-51
2022/11/20 14:22:37;;;;;;;6.70;4.70;;;9.20;83.70;;;;;;5046746;28;20473;-49
2022/11/20 14:25:22;;;;;;;5.13;4.30;;;9.20;83.70;;;;;;5045628;28;20617;-48
2022/11/20 14:28:00;;;;;;;6.30;5.00;;;9.20;83.60;;;;;;5055947;28;20466;-49
2022/11/20 14:30:45;;;;;;;5.77;4.33;;;9.20;83.70;;;;;;5047411;28;20463;-50
2022/11/20 14:33:16;;;;;;;8.20;5.10;;;9.20;83.70;;;;;;5075775;28;20948;-49
2022/11/20 14:35:50;;;;;;;6.90;4.87;;;9.20;83.70;;;;;;5046528;28;20997;-49
2022/11/20 14:38:25;;;;;;;7.70;4.95;;;9.20;83.60;;;;;;5079207;28;20439;-51
2022/11/20 14:40:54;;;;;;;9.73;6.53;;;9.20;83.70;;;;;;5044663;28;20263;-51
2022/11/20 14:43:26;;;;;;;7.60;4.97;;;9.20;84.20;;;;;;5046578;28;20446;-50